Time;durP1;ratioP1;P1;durP2;ratioP2;P2;SDS_P1;SDS_P2;PMS_P1;PMS_P2;Temp;Humidity;BMP_temperature;BMP_pressure;BME280_temperature;BME280_humidity;BME280_pressure;Samples;Min_cycle;Max_cycle;Signal;HPM_P1;HPM_P2
2021/12/07 05:37:52;;;;;;;35.92;18.52;;;2.00;99.90;;;;;;5116537;27;20052;-58
2021/12/07 05:40:34;;;;;;;32.90;16.48;;;2.00;99.90;;;;;;5111985;27;20022;-63
2021/12/07 05:43:00;;;;;;;27.73;15.80;;;1.90;99.90;;;;;;5111847;27;20531;-62
2021/12/07 05:45:31;;;;;;;33.38;16.20;;;1.90;99.90;;;;;;5116004;27;20051;-62
2021/12/07 05:47:58;;;;;;;34.55;18.75;;;2.00;99.90;;;;;;5109220;28;20106;-61
2021/12/07 05:50:27;;;;;;;33.50;19.45;;;1.90;99.90;;;;;;5114945;27;20043;-62
2021/12/07 05:52:53;;;;;;;42.78;22.20;;;2.00;99.90;;;;;;5118048;28;20451;-62
2021/12/07 05:55:19;;;;;;;33.78;18.35;;;2.00;99.90;;;;;;5113126;28;20084;-61
2021/12/07 05:57:45;;;;;;;;;;;2.00;99.90;;;;;;5118743;27;20070;-61
2021/12/07 13:02:37;;;;;;;22.83;14.20;;;4.80;99.90;;;;;;5095510;27;20320;-62
2021/12/07 13:05:05;;;;;;;24.33;12.70;;;4.70;99.90;;;;;;5078025;28;20063;-62
2021/12/07 13:07:31;;;;;;;26.20;14.02;;;4.70;99.90;;;;;;5078039;28;20071;-62
2021/12/07 13:10:00;;;;;;;23.35;12.98;;;4.70;99.90;;;;;;5072609;28;20582;-62
2021/12/07 13:12:33;;;;;;;20.50;11.82;;;4.70;99.90;;;;;;5075993;28;20032;-62
2021/12/07 13:15:07;;;;;;;18.88;12.05;;;4.70;99.90;;;;;;5081201;28;20020;-62
2021/12/07 13:17:38;;;;;;;22.65;13.57;;;4.60;99.90;;;;;;5074520;28;20029;-62
2021/12/07 13:20:09;;;;;;;21.10;12.45;;;4.60;99.90;;;;;;5074973;28;20048;-62
2021/12/07 13:22:49;;;;;;;20.33;13.13;;;4.60;99.90;;;;;;5075453;28;20035;-62
2021/12/07 13:25:27;;;;;;;24.15;13.50;;;4.50;99.90;;;;;;5071148;28;20032;-62
2021/12/07 13:28:42;;;;;;;20.88;12.52;;;4.50;99.90;;;;;;5076154;28;20032;-62
2021/12/07 13:31:17;;;;;;;20.00;12.25;;;4.50;99.90;;;;;;5074035;28;20111;-62
2021/12/07 13:33:48;;;;;;;19.92;12.60;;;4.50;99.90;;;;;;5079101;28;20056;-62
2021/12/07 13:36:30;;;;;;;25.95;12.75;;;4.60;99.90;;;;;;5079986;28;20064;-62
2021/12/07 13:39:20;;;;;;;20.85;13.27;;;4.60;99.90;;;;;;5074703;28;20048;-63
2021/12/07 13:42:18;;;;;;;21.90;12.88;;;4.70;99.90;;;;;;5066158;28;20040;-62
2021/12/07 13:44:54;;;;;;;25.08;13.88;;;4.80;99.90;;;;;;5078900;28;20044;-62
2021/12/07 13:47:23;;;;;;;25.30;13.80;;;4.80;99.90;;;;;;5082258;28;20063;-62
2021/12/07 13:50:12;;;;;;;25.08;12.10;;;4.70;99.90;;;;;;5073477;28;20032;-63
2021/12/07 13:52:47;;;;;;;21.38;13.15;;;4.70;99.90;;;;;;5072877;28;20032;-63
2021/12/07 13:55:17;;;;;;;28.73;14.13;;;4.70;99.90;;;;;;5080677;28;20051;-62
2021/12/07 13:57:46;;;;;;;26.02;13.05;;;4.70;99.90;;;;;;5075127;28;20063;-62
2021/12/07 16:11:09;;;;;;;37.08;18.45;;;3.50;99.90;;;;;;5068942;27;21148;-63
2021/12/07 16:13:37;;;;;;;30.85;17.48;;;3.50;99.90;;;;;;5041484;28;20060;-63
2021/12/07 16:16:13;;;;;;;34.00;18.15;;;3.40;99.90;;;;;;5037611;28;20032;-63
2021/12/07 16:18:39;;;;;;;26.52;15.57;;;3.40;99.90;;;;;;5034423;28;20021;-62
2021/12/07 16:21:06;;;;;;;31.85;18.38;;;3.40;99.90;;;;;;5039380;28;20025;-63
2021/12/07 16:23:34;;;;;;;31.40;16.58;;;3.40;99.90;;;;;;5042380;28;20028;-63
2021/12/07 16:26:00;;;;;;;28.70;15.88;;;3.40;99.90;;;;;;5042391;28;20025;-62
2021/12/07 16:28:26;;;;;;;28.80;15.98;;;3.40;99.90;;;;;;5041991;28;20033;-62
2021/12/07 16:30:51;;;;;;;27.05;16.10;;;3.40;99.90;;;;;;5039809;28;20095;-63
2021/12/07 16:33:17;;;;;;;31.30;16.35;;;3.40;99.90;;;;;;5057145;28;20362;-63
2021/12/07 16:35:43;;;;;;;25.10;16.73;;;3.40;99.90;;;;;;5038943;28;20060;-62
2021/12/07 16:38:08;;;;;;;30.23;17.50;;;3.40;99.90;;;;;;5041196;28;20112;-62
2021/12/07 16:40:34;;;;;;;28.65;15.32;;;3.50;99.90;;;;;;5041011;28;20249;-62
2021/12/07 16:43:00;;;;;;;26.08;16.08;;;3.50;99.90;;;;;;5041007;28;20033;-62
2021/12/07 16:45:33;;;;;;;27.95;14.68;;;3.50;99.90;;;;;;5042043;28;20045;-63
2021/12/07 16:48:00;;;;;;;26.55;14.90;;;3.50;99.90;;;;;;5042855;28;20025;-63
2021/12/07 16:50:25;;;;;;;26.55;14.95;;;3.50;99.90;;;;;;5040676;28;20108;-62
2021/12/07 16:52:51;;;;;;;24.58;14.90;;;3.60;99.90;;;;;;5042378;28;20112;-62
2021/12/07 16:55:19;;;;;;;27.88;16.13;;;3.50;99.90;;;;;;5042736;28;20025;-62
2021/12/07 16:57:46;;;;;;;26.52;15.27;;;3.50;99.90;;;;;;5038933;28;20026;-63
2021/12/07 17:00:16;;;;;;;30.42;17.40;;;3.50;99.90;;;;;;5042409;28;20025;-62
2021/12/07 17:02:42;;;;;;;23.08;14.13;;;3.60;99.90;;;;;;5011868;22;20038;-63
2021/12/07 17:05:11;;;;;;;26.10;15.32;;;3.60;99.90;;;;;;4994962;28;20037;-61
2021/12/07 17:07:40;;;;;;;29.98;17.70;;;3.60;99.90;;;;;;5008678;28;20050;-63
2021/12/07 17:10:09;;;;;;;29.17;15.93;;;3.50;99.90;;;;;;4994979;28;20034;-63
2021/12/07 17:12:35;;;;;;;24.60;15.38;;;3.50;99.90;;;;;;4982977;28;20029;-63
2021/12/07 17:15:00;;;;;;;23.88;14.88;;;3.50;99.90;;;;;;4975222;28;20031;-63
2021/12/07 17:17:26;;;;;;;23.77;14.80;;;3.50;99.90;;;;;;4979869;28;20479;-62
2021/12/07 17:19:52;;;;;;;28.00;16.83;;;3.50;99.90;;;;;;4984920;28;20058;-63
2021/12/07 17:22:17;;;;;;;26.52;15.15;;;3.50;99.90;;;;;;4973221;28;20023;-64
2021/12/07 17:24:43;;;;;;;25.58;14.25;;;3.50;99.90;;;;;;4971120;28;20027;-65
2021/12/07 17:27:08;;;;;;;26.40;15.77;;;3.50;99.90;;;;;;4976203;28;20046;-64
2021/12/07 17:29:35;;;;;;;22.77;14.45;;;3.50;99.90;;;;;;4976628;28;20114;-65
2021/12/07 17:32:01;;;;;;;26.13;14.68;;;3.40;99.90;;;;;;4981538;28;20041;-64
2021/12/07 17:34:27;;;;;;;22.83;14.45;;;3.40;99.90;;;;;;4975166;28;20023;-64
2021/12/07 17:36:52;;;;;;;26.00;16.73;;;3.50;99.90;;;;;;4974934;28;20027;-65
2021/12/07 17:39:19;;;;;;;27.10;15.00;;;3.40;99.90;;;;;;4977018;28;20066;-64
2021/12/07 17:41:47;;;;;;;23.52;14.45;;;3.40;99.90;;;;;;4982363;28;20061;-64
2021/12/07 17:44:13;;;;;;;23.23;13.23;;;3.40;99.90;;;;;;4970720;28;20027;-64
2021/12/07 17:46:39;;;;;;;23.42;14.20;;;3.40;99.90;;;;;;4974211;28;20502;-64
2021/12/07 17:49:07;;;;;;;23.50;13.95;;;3.40;99.90;;;;;;4971853;28;20034;-65
2021/12/07 17:51:33;;;;;;;22.50;14.40;;;3.40;99.90;;;;;;4968048;28;20599;-63
2021/12/07 17:53:58;;;;;;;22.67;14.10;;;3.40;99.90;;;;;;4974253;28;20030;-65
2021/12/07 17:56:24;;;;;;;22.85;14.02;;;3.40;99.90;;;;;;4971196;28;20488;-64
2021/12/07 17:58:52;;;;;;;23.40;13.02;;;3.30;99.90;;;;;;4971738;28;20030;-64
2021/12/07 18:01:18;;;;;;;20.42;13.57;;;3.40;99.90;;;;;;4967270;28;20026;-64
2021/12/07 18:03:43;;;;;;;;;;;3.40;99.90;;;;;;4969584;28;20027;-64
2021/12/07 18:06:09;;;;;;;19.60;11.77;;;3.30;99.90;;;;;;4972887;28;19921;-64
2021/12/07 18:08:34;;;;;;;23.17;13.05;;;3.30;99.90;;;;;;4968112;28;20109;-64
2021/12/07 18:11:00;;;;;;;19.92;13.25;;;3.30;99.90;;;;;;4967782;28;20038;-65
2021/12/07 18:13:26;;;;;;;;;;;3.30;99.90;;;;;;4971796;28;20031;-64
2021/12/07 18:15:52;;;;;;;21.33;12.93;;;3.30;99.90;;;;;;4975602;28;19957;-64
2021/12/07 18:18:18;;;;;;;;;;;3.30;99.90;;;;;;4968856;28;20331;-63
2021/12/07 18:20:44;;;;;;;17.45;9.38;;;3.30;99.90;;;;;;4975045;28;19913;-63
2021/12/07 18:23:12;;;;;;;22.55;13.38;;;3.30;99.90;;;;;;4970707;28;20026;-62
2021/12/07 18:25:39;;;;;;;19.10;12.55;;;3.20;99.90;;;;;;4979423;28;20109;-62
2021/12/07 18:28:05;;;;;;;17.92;11.32;;;3.20;99.90;;;;;;4968089;28;20042;-63
2021/12/07 18:30:35;;;;;;;19.75;13.00;;;3.10;99.90;;;;;;4972740;28;20388;-62
2021/12/07 18:33:07;;;;;;;23.08;15.18;;;3.00;99.90;;;;;;4973761;28;20110;-63
2021/12/07 18:35:33;;;;;;;19.15;12.80;;;3.00;99.90;;;;;;4968186;28;20031;-63
2021/12/07 18:37:59;;;;;;;19.88;11.90;;;2.90;99.90;;;;;;4969000;28;20035;-62
2021/12/07 18:40:25;;;;;;;22.83;13.57;;;2.80;99.90;;;;;;4969748;28;20488;-62
2021/12/07 18:42:51;;;;;;;19.05;13.07;;;2.80;99.90;;;;;;4970701;28;20034;-63
2021/12/07 18:45:17;;;;;;;18.98;11.25;;;2.70;99.90;;;;;;4978019;28;20030;-63
2021/12/07 18:47:44;;;;;;;18.90;12.15;;;2.60;99.90;;;;;;4974849;28;20395;-63
2021/12/07 18:50:13;;;;;;;25.13;14.02;;;2.60;99.90;;;;;;4970326;28;20031;-63
2021/12/07 18:52:40;;;;;;;22.83;13.90;;;2.60;99.90;;;;;;4970886;28;20479;-63
2021/12/07 18:55:07;;;;;;;24.02;13.05;;;2.60;99.90;;;;;;4976093;28;20027;-63
2021/12/07 18:57:33;;;;;;;19.63;11.27;;;2.60;99.90;;;;;;4968859;28;20157;-63
2021/12/07 19:00:00;;;;;;;20.45;12.60;;;2.50;99.90;;;;;;4968094;28;20460;-62
2021/12/07 19:02:27;;;;;;;24.98;14.10;;;2.50;99.90;;;;;;4971246;28;20394;-64
2021/12/07 19:04:52;;;;;;;27.77;14.23;;;2.50;99.90;;;;;;4975102;28;20184;-63
2021/12/07 19:07:18;;;;;;;20.15;13.52;;;2.40;99.90;;;;;;4967535;28;20031;-63
2021/12/07 19:09:43;;;;;;;20.48;13.75;;;2.40;99.90;;;;;;4966821;28;20034;-62
2021/12/07 19:12:09;;;;;;;21.58;12.95;;;2.40;99.90;;;;;;4968992;28;20030;-63
2021/12/07 19:14:36;;;;;;;25.73;13.35;;;2.40;99.90;;;;;;4973019;28;20030;-63
2021/12/07 19:17:01;;;;;;;20.15;12.35;;;2.40;99.90;;;;;;4975253;28;20503;-63
2021/12/07 19:19:27;;;;;;;18.60;12.32;;;2.40;99.90;;;;;;4967632;28;20035;-63
2021/12/07 19:21:53;;;;;;;22.30;13.10;;;2.40;99.90;;;;;;4965172;28;20122;-62
2021/12/07 19:24:19;;;;;;;19.48;12.20;;;2.40;99.90;;;;;;4965736;28;20484;-63
2021/12/07 19:26:45;;;;;;;22.55;12.73;;;2.40;99.90;;;;;;4968343;28;20045;-63
2021/12/07 19:29:10;;;;;;;16.95;12.60;;;2.50;99.90;;;;;;4969801;28;20038;-63
2021/12/07 19:31:36;;;;;;;17.50;11.13;;;2.60;99.90;;;;;;4971325;28;20037;-63
2021/12/07 19:34:02;;;;;;;19.05;11.20;;;2.50;99.90;;;;;;4964498;28;20575;-64
2021/12/07 19:36:28;;;;;;;20.30;11.90;;;2.50;99.90;;;;;;4970439;28;20128;-64
2021/12/07 19:38:54;;;;;;;22.83;12.77;;;2.50;99.90;;;;;;4973264;28;20500;-64
2021/12/07 19:41:20;;;;;;;19.45;14.05;;;2.50;99.90;;;;;;4972229;28;20106;-64
2021/12/07 19:43:46;;;;;;;23.30;11.70;;;2.40;99.90;;;;;;4965795;28;20035;-64
2021/12/07 19:46:12;;;;;;;24.15;12.25;;;2.40;99.90;;;;;;4970767;28;20039;-63
2021/12/07 19:48:38;;;;;;;29.50;15.10;;;2.30;99.90;;;;;;4968274;28;20590;-64
2021/12/07 19:51:10;;;;;;;23.35;11.38;;;2.30;99.90;;;;;;4966009;28;20039;-63
2021/12/07 19:53:46;;;;;;;27.75;14.55;;;2.20;99.90;;;;;;4967301;28;20031;-63
2021/12/07 19:56:15;;;;;;;21.92;12.88;;;2.20;99.90;;;;;;4969069;28;20033;-63
2021/12/07 19:58:42;;;;;;;21.60;13.07;;;2.10;99.90;;;;;;4971218;28;20026;-64
2021/12/07 20:01:10;;;;;;;29.95;15.27;;;2.10;99.90;;;;;;4971155;28;20364;-63
2021/12/07 20:03:36;;;;;;;26.63;15.88;;;2.10;99.90;;;;;;4967634;28;20090;-63
2021/12/07 20:06:03;;;;;;;22.77;12.63;;;2.00;99.90;;;;;;4967892;28;20035;-63
2021/12/07 20:08:29;;;;;;;27.08;14.85;;;2.00;99.90;;;;;;4967969;28;20034;-63
2021/12/07 20:10:55;;;;;;;23.55;12.07;;;2.00;99.90;;;;;;4970483;28;20034;-63
2021/12/07 20:13:23;;;;;;;20.23;11.68;;;2.00;99.90;;;;;;4966263;28;20047;-64
2021/12/07 20:15:52;;;;;;;17.33;10.98;;;2.00;99.90;;;;;;4967205;28;20033;-63
2021/12/07 20:18:18;;;;;;;24.75;12.63;;;2.00;99.90;;;;;;4969432;28;20019;-63
2021/12/07 20:20:45;;;;;;;;;;;2.00;99.90;;;;;;4973829;28;20106;-63
2021/12/07 20:23:11;;;;;;;19.10;10.82;;;2.00;99.90;;;;;;4968388;28;20012;-63
2021/12/07 20:25:37;;;;;;;20.00;11.35;;;2.00;99.90;;;;;;4964573;28;20547;-64
2021/12/07 20:28:02;;;;;;;18.17;11.52;;;1.90;99.90;;;;;;4969561;28;20038;-63
2021/12/07 20:30:28;;;;;;;18.55;11.95;;;2.00;99.90;;;;;;4964584;28;20037;-63
2021/12/07 20:32:54;;;;;;;21.15;12.35;;;2.00;99.90;;;;;;4970186;28;20059;-64
2021/12/07 20:35:20;;;;;;;23.05;13.43;;;1.90;99.90;;;;;;4964482;28;20038;-63
2021/12/07 20:37:45;;;;;;;20.05;11.50;;;1.90;99.90;;;;;;4962750;28;20022;-63
2021/12/07 20:40:14;;;;;;;21.23;12.77;;;1.90;99.90;;;;;;4962873;28;20070;-63
2021/12/07 20:42:40;;;;;;;20.33;12.52;;;1.90;99.90;;;;;;4967876;28;20066;-63
2021/12/07 20:45:07;;;;;;;18.17;11.23;;;1.90;99.90;;;;;;4968514;28;20035;-63
2021/12/07 20:47:33;;;;;;;22.65;11.80;;;1.90;99.90;;;;;;4968966;28;20333;-64
2021/12/07 20:49:59;;;;;;;19.92;11.30;;;1.90;99.90;;;;;;4970045;28;20499;-63
2021/12/07 20:52:25;;;;;;;20.08;10.88;;;1.90;99.90;;;;;;4962083;28;20043;-64
2021/12/07 20:54:52;;;;;;;21.77;12.27;;;1.90;99.90;;;;;;4965199;28;20019;-63
2021/12/07 20:57:18;;;;;;;18.33;10.45;;;1.90;99.90;;;;;;4973519;28;20038;-63
2021/12/07 20:59:44;;;;;;;19.98;10.55;;;1.90;99.90;;;;;;4966477;28;20553;-63
